SPCL/PCL METAR and TAF weather

Enter ICAO airport designator
Station Type Date Time Source
SPCL METAR 2022/06/28 05:00 UTC NOAA

SPCL 280500Z 00000KT 9999 FEW020 23/23 Q1013 RMK PP000


Station Type Date Time Source
SPCL Decoded METAR 2022/06/28 05:00 UTC NOAA

Pucallpa, Peru (SPCL) 08-25S 074-36W 149M
Jun 28, 2022 - 01:00 AM EDT / 2022.06.28 0500 UTC
Wind: Calm:0
Visibility: greater than 7 mile(s):0
Sky conditions: mostly clear
Temperature: 73 F (23 C)
Dew Point: 73 F (23 C)
Relative Humidity: 100%
Pressure (altimeter): 29.91 in. Hg (1013 hPa)
ob: SPCL 280500Z 00000KT 9999 FEW020 23/23 Q1013 RMK PP000
cycle: 5

Station Type Date Time Source
SPCL TAF 2022/06/27 18:33 UTC NOAA

TAF TAF SPCL 271700Z 2718/2818 02005KT 9999 SCT025 TX33/2720Z TN22/2811Z
TEMPO 2809/2812 2000 BR SCT005

Example: see airport list